Terminal Aerodrome Forecast
Issued by NWS New Orleans/Baton Rouge, LA

Home | Current Version | Previous Version | Text Only | Print | Product List | Glossary On
Versions: 1 2 3 4 5 6 7 8 9 10 11 12 13 14 15 16 17 18 19
288
FTUS44 KLIX 231740
TAFBTR
TAF
KBTR 231740Z 2318/2418 17012KT P6SM VCSH SCT015 BKN040
      TEMPO 2318/2322 4SM -TSRA OVC020CB
     FM240000 19008KT P6SM BKN100
     FM241000 18004KT P6SM BKN015
     FM241600 19011KT P6SM VCSH SCT020 BKN040=

USA.gov is the U.S. government's official web portal to all federal, state and local government web resources and services.